createdAt,value
2022-10-29T00:00:56.384Z,15.80
2022-10-29T00:03:23.864Z,15.80
2022-10-29T00:06:02.342Z,15.80
2022-10-29T00:08:31.069Z,15.90
2022-10-29T00:11:07.135Z,15.90
2022-10-29T00:13:34.609Z,15.90
2022-10-29T00:16:05.396Z,15.90
2022-10-29T00:18:32.028Z,15.90
2022-10-29T00:21:07.602Z,15.90
2022-10-29T00:23:35.003Z,15.90
2022-10-29T00:26:02.526Z,16.00
2022-10-29T00:28:29.853Z,16.00
2022-10-29T00:30:56.652Z,16.00
2022-10-29T00:33:23.608Z,16.00
2022-10-29T00:36:09.429Z,16.00
2022-10-29T00:38:36.574Z,16.00
2022-10-29T00:41:05.574Z,16.00
2022-10-29T00:43:41.010Z,16.00
2022-10-29T00:46:11.883Z,15.90
2022-10-29T00:48:46.723Z,15.90
2022-10-29T00:51:15.445Z,15.90
2022-10-29T00:53:48.920Z,15.90
2022-10-29T00:56:16.744Z,15.90
2022-10-29T00:58:44.297Z,15.90
2022-10-29T01:01:11.246Z,15.90
2022-10-29T01:03:39.155Z,15.90
2022-10-29T01:06:06.377Z,15.80
2022-10-29T01:08:33.114Z,15.80
2022-10-29T01:11:21.365Z,15.70
2022-10-29T01:13:54.015Z,15.60
2022-10-29T01:16:45.362Z,15.50
2022-10-29T01:19:27.131Z,15.50
2022-10-29T01:22:03.633Z,15.40
2022-10-29T01:24:57.759Z,15.30
2022-10-29T01:27:43.748Z,15.30
2022-10-29T01:30:35.478Z,15.20
2022-10-29T01:33:23.417Z,15.20
2022-10-29T01:35:56.440Z,15.30
2022-10-29T01:38:53.576Z,15.30
2022-10-29T01:41:46.009Z,15.30
2022-10-29T01:44:33.538Z,15.30
2022-10-29T01:47:03.320Z,15.30
2022-10-29T01:49:37.540Z,15.40
2022-10-29T01:52:07.268Z,15.40
2022-10-29T01:54:33.938Z,15.40
2022-10-29T01:57:01.037Z,15.40
2022-10-29T01:59:36.152Z,15.40
2022-10-29T02:02:25.309Z,15.40
2022-10-29T02:04:57.772Z,15.30
2022-10-29T02:07:54.975Z,15.30
2022-10-29T02:10:39.405Z,15.30
2022-10-29T02:13:07.765Z,15.30
2022-10-29T02:15:42.376Z,15.30
2022-10-29T02:18:09.455Z,15.30
2022-10-29T02:20:40.906Z,15.30
2022-10-29T02:23:07.648Z,15.30
2022-10-29T02:25:34.324Z,15.40
2022-10-29T02:28:01.286Z,15.30
2022-10-29T02:30:27.969Z,15.30
2022-10-29T02:32:54.956Z,15.30
2022-10-29T02:35:21.833Z,15.30
2022-10-29T02:37:48.724Z,15.30
2022-10-29T02:40:15.455Z,15.20
2022-10-29T02:42:42.104Z,15.20
2022-10-29T02:45:09.117Z,15.10
2022-10-29T02:47:35.745Z,15.10
2022-10-29T02:50:02.397Z,15.10
2022-10-29T02:52:29.065Z,15.00
2022-10-29T02:54:55.732Z,14.90
2022-10-29T02:57:22.449Z,14.90
2022-10-29T02:59:49.118Z,14.80
2022-10-29T03:02:15.799Z,14.70
2022-10-29T03:04:44.279Z,14.70
2022-10-29T03:07:11.018Z,14.60
2022-10-29T03:09:37.850Z,14.60
2022-10-29T03:12:04.645Z,14.50
2022-10-29T03:14:31.268Z,14.50
2022-10-29T03:16:57.901Z,14.50
2022-10-29T03:19:24.568Z,14.40
2022-10-29T03:21:51.244Z,14.40
2022-10-29T03:24:17.950Z,15.60
2022-10-29T03:26:44.559Z,14.20
2022-10-29T03:29:11.220Z,14.30
2022-10-29T03:31:37.821Z,14.20
2022-10-29T03:34:04.473Z,14.20
2022-10-29T03:36:31.209Z,14.20
2022-10-29T03:38:57.833Z,14.10
2022-10-29T03:41:24.463Z,14.10
2022-10-29T03:43:51.353Z,14.10
2022-10-29T03:46:18.042Z,14.10
2022-10-29T03:48:44.657Z,14.20
2022-10-29T03:51:11.278Z,14.20
2022-10-29T03:53:38.351Z,14.20
2022-10-29T03:56:05.633Z,14.20
2022-10-29T03:58:32.300Z,14.10
2022-10-29T04:01:04.681Z,14.10
2022-10-29T04:03:33.376Z,14.10
2022-10-29T04:06:01.513Z,14.10
2022-10-29T04:08:29.020Z,14.20
2022-10-29T04:10:55.705Z,14.20
2022-10-29T04:13:22.489Z,14.20
2022-10-29T04:15:49.140Z,14.20
2022-10-29T04:18:15.778Z,14.20
2022-10-29T04:20:56.980Z,14.30
2022-10-29T04:29:03.305Z,14.40
2022-10-29T04:31:29.933Z,14.40
2022-10-29T04:33:56.625Z,14.40
2022-10-29T04:36:23.328Z,14.40
2022-10-29T04:38:50.749Z,14.40
2022-10-29T04:41:17.458Z,14.40
2022-10-29T04:43:44.119Z,14.40
2022-10-29T04:46:11.172Z,14.30
2022-10-29T04:48:38.116Z,14.40
2022-10-29T04:51:05.047Z,14.40
2022-10-29T04:53:31.866Z,14.50
2022-10-29T04:56:05.509Z,14.50
2022-10-29T04:58:32.164Z,14.60
2022-10-29T05:01:03.169Z,14.60
2022-10-29T05:03:29.911Z,14.70
2022-10-29T05:05:56.611Z,14.70
2022-10-29T05:08:23.587Z,14.60
2022-10-29T05:10:50.241Z,16.20
2022-10-29T05:13:16.887Z,14.60
2022-10-29T05:15:43.531Z,14.60
2022-10-29T05:18:10.305Z,14.50
2022-10-29T05:20:37.015Z,14.50
2022-10-29T05:23:08.635Z,14.50
2022-10-29T05:25:37.326Z,14.50
2022-10-29T05:28:05.985Z,14.50
2022-10-29T05:30:33.753Z,14.50
2022-10-29T05:33:00.858Z,14.50
2022-10-29T05:35:27.974Z,14.50
2022-10-29T05:37:55.906Z,14.50
2022-10-29T05:40:23.667Z,14.50
2022-10-29T05:42:50.674Z,14.60
2022-10-29T05:45:17.879Z,14.60
2022-10-29T05:47:44.856Z,14.50
2022-10-29T05:50:12.289Z,14.50
2022-10-29T05:52:39.678Z,14.40
2022-10-29T05:55:07.181Z,14.40
2022-10-29T05:57:33.823Z,14.30
2022-10-29T06:00:00.486Z,14.30
2022-10-29T06:02:27.226Z,14.30
2022-10-29T06:04:53.997Z,14.40
2022-10-29T06:07:20.670Z,14.40
2022-10-29T06:09:47.285Z,14.40
2022-10-29T06:12:13.962Z,14.50
2022-10-29T06:14:40.595Z,14.60
2022-10-29T06:17:07.213Z,14.60
2022-10-29T06:19:33.949Z,14.60
2022-10-29T06:22:00.807Z,14.70
2022-10-29T06:24:27.788Z,14.70
2022-10-29T06:26:54.702Z,14.80
2022-10-29T06:29:21.417Z,14.80
2022-10-29T06:31:48.401Z,14.90
2022-10-29T06:34:15.161Z,14.90
2022-10-29T06:36:42.126Z,14.90
2022-10-29T06:39:08.822Z,14.90
2022-10-29T06:41:35.498Z,15.00
2022-10-29T06:44:02.270Z,15.00
2022-10-29T06:46:28.920Z,15.00
2022-10-29T06:48:55.546Z,15.00
2022-10-29T06:53:54.714Z,14.90
2022-10-29T06:56:21.761Z,14.80
2022-10-29T06:58:48.400Z,14.80
2022-10-29T07:01:15.109Z,14.80
2022-10-29T07:03:41.793Z,14.80
2022-10-29T07:06:08.442Z,14.80
2022-10-29T07:08:35.089Z,14.80
2022-10-29T07:11:02.886Z,14.80
2022-10-29T07:13:29.589Z,14.80
2022-10-29T07:15:56.300Z,14.70
2022-10-29T07:18:22.937Z,14.80
2022-10-29T07:20:49.610Z,14.70
2022-10-29T07:23:16.343Z,14.80
2022-10-29T07:25:43.187Z,14.80
2022-10-29T07:28:16.400Z,14.80
2022-10-29T07:30:44.292Z,14.90
2022-10-29T07:33:11.435Z,15.20
2022-10-29T07:35:38.235Z,15.20
2022-10-29T07:38:14.337Z,15.30
2022-10-29T07:40:47.796Z,15.40
2022-10-29T07:43:14.674Z,15.50
2022-10-29T07:45:45.769Z,15.60
2022-10-29T07:48:12.434Z,15.70
2022-10-29T07:50:39.522Z,15.80
2022-10-29T07:53:07.740Z,16.00
2022-10-29T07:55:34.980Z,16.00
2022-10-29T07:58:06.954Z,16.10
2022-10-29T08:00:36.765Z,16.20
2022-10-29T08:03:04.028Z,16.20
2022-10-29T08:05:31.974Z,16.20
2022-10-29T08:07:59.826Z,16.40
2022-10-29T08:10:27.145Z,16.50
2022-10-29T08:12:56.418Z,16.60
2022-10-29T08:15:24.330Z,16.60
2022-10-29T08:17:51.467Z,16.70
2022-10-29T08:20:19.714Z,16.80
2022-10-29T08:22:46.639Z,16.80
2022-10-29T08:25:14.143Z,16.80
2022-10-29T08:27:40.863Z,16.90
2022-10-29T08:30:09.962Z,16.80
2022-10-29T08:32:36.693Z,16.90
2022-10-29T08:35:03.916Z,16.90
2022-10-29T08:37:30.540Z,16.90
2022-10-29T08:39:57.191Z,16.80
2022-10-29T08:42:29.798Z,16.80
2022-10-29T08:45:17.486Z,16.70
2022-10-29T08:48:16.602Z,16.70
2022-10-29T08:51:25.165Z,16.70
2022-10-29T08:54:25.016Z,16.60
2022-10-29T08:56:48.958Z,16.60
2022-10-29T08:59:18.519Z,16.80
2022-10-29T09:01:45.614Z,16.70
2022-10-29T09:04:24.572Z,16.70
2022-10-29T09:07:03.601Z,16.60
2022-10-29T09:09:47.414Z,16.60
2022-10-29T09:12:44.292Z,16.70
2022-10-29T09:15:20.155Z,16.90
2022-10-29T09:17:52.727Z,17.20
2022-10-29T09:20:25.646Z,17.40
2022-10-29T09:23:39.543Z,17.60
2022-10-29T09:26:16.081Z,17.80
2022-10-29T09:28:48.960Z,17.90
2022-10-29T09:31:33.033Z,17.90
2022-10-29T09:34:05.657Z,17.90
2022-10-29T09:36:33.494Z,17.90
2022-10-29T09:39:03.804Z,18.00
2022-10-29T09:41:35.036Z,17.90
2022-10-29T09:44:24.232Z,17.90
2022-10-29T09:46:53.877Z,17.90
2022-10-29T09:49:35.410Z,18.00
2022-10-29T09:52:13.120Z,18.10
2022-10-29T09:54:39.809Z,18.20
2022-10-29T09:57:11.928Z,18.20
2022-10-29T09:59:44.104Z,18.30
2022-10-29T10:02:37.352Z,18.40
2022-10-29T10:05:13.728Z,18.40
2022-10-29T10:07:41.441Z,18.50
2022-10-29T10:10:21.355Z,18.60
2022-10-29T10:12:50.362Z,18.70
2022-10-29T10:15:16.949Z,18.90
2022-10-29T10:18:06.523Z,18.90
2022-10-29T10:20:38.256Z,19.00
2022-10-29T10:23:27.685Z,19.10
2022-10-29T10:26:00.418Z,19.20
2022-10-29T10:28:34.569Z,19.30
2022-10-29T10:31:04.383Z,19.60
2022-10-29T10:33:33.468Z,19.40
2022-10-29T10:36:07.249Z,19.40
2022-10-29T10:38:43.015Z,19.50
2022-10-29T10:41:11.702Z,19.60
2022-10-29T10:43:41.800Z,19.60
2022-10-29T10:46:16.672Z,19.70
2022-10-29T10:48:43.574Z,19.60
2022-10-29T10:51:32.001Z,19.70
2022-10-29T10:54:01.253Z,19.80
2022-10-29T10:56:28.129Z,19.90
2022-10-29T10:59:02.182Z,20.10
2022-10-29T11:01:36.669Z,20.20
2022-10-29T11:04:29.300Z,20.20
2022-10-29T11:07:01.450Z,20.30
2022-10-29T11:09:39.161Z,20.30
2022-10-29T11:12:32.013Z,20.20
2022-10-29T11:15:21.961Z,20.20
2022-10-29T11:18:00.218Z,20.10
2022-10-29T11:20:32.209Z,20.10
2022-10-29T11:23:46.928Z,20.00
2022-10-29T11:26:28.536Z,20.00
2022-10-29T11:29:21.177Z,20.00
2022-10-29T11:32:00.700Z,20.10
2022-10-29T11:35:05.096Z,20.10
2022-10-29T11:37:50.194Z,20.20
2022-10-29T11:40:22.089Z,20.30
2022-10-29T11:42:48.914Z,20.20
2022-10-29T11:45:20.259Z,20.20
2022-10-29T11:48:03.365Z,20.20
2022-10-29T11:50:44.376Z,20.20
2022-10-29T11:53:27.756Z,20.20
2022-10-29T11:56:24.717Z,20.30
2022-10-29T11:59:19.143Z,20.30
2022-10-29T12:02:00.908Z,20.30
2022-10-29T12:04:48.395Z,20.30
2022-10-29T12:07:20.621Z,20.40
2022-10-29T12:10:05.403Z,20.40
2022-10-29T12:12:41.185Z,20.50
2022-10-29T12:15:27.936Z,20.50
2022-10-29T12:18:01.463Z,20.50
2022-10-29T12:20:47.604Z,20.60
2022-10-29T12:24:04.857Z,20.70
2022-10-29T12:26:52.583Z,20.80
2022-10-29T12:29:46.727Z,20.80
2022-10-29T12:32:56.211Z,20.90
2022-10-29T12:35:27.518Z,20.90
2022-10-29T12:38:27.802Z,21.10
2022-10-29T12:41:32.046Z,21.20
2022-10-29T12:44:26.354Z,21.30
2022-10-29T12:47:02.287Z,21.40
2022-10-29T12:49:48.486Z,21.40
2022-10-29T12:52:32.033Z,21.40
2022-10-29T12:55:00.845Z,21.40
2022-10-29T12:57:35.835Z,21.40
2022-10-29T13:00:45.788Z,21.30
2022-10-29T13:03:12.611Z,21.20
2022-10-29T13:05:43.811Z,21.10
2022-10-29T13:08:27.811Z,21.00
2022-10-29T13:10:56.487Z,20.90
2022-10-29T13:13:36.226Z,20.80
2022-10-29T13:16:12.002Z,20.70
2022-10-29T13:18:46.417Z,20.70
2022-10-29T13:21:13.085Z,20.60
2022-10-29T13:23:39.866Z,20.60
2022-10-29T13:26:08.224Z,20.60
2022-10-29T13:28:37.701Z,20.60
2022-10-29T13:31:04.337Z,20.60
2022-10-29T13:33:30.992Z,20.60
2022-10-29T13:36:15.771Z,20.60
2022-10-29T13:39:05.192Z,20.60
2022-10-29T13:41:44.459Z,20.60
2022-10-29T13:44:14.037Z,20.70
2022-10-29T13:46:49.809Z,20.80
2022-10-29T13:49:28.017Z,20.80
2022-10-29T13:52:00.342Z,20.80
2022-10-29T13:54:32.193Z,20.80
2022-10-29T13:57:34.403Z,20.90
2022-10-29T14:00:18.028Z,20.80
2022-10-29T14:02:59.704Z,20.80
2022-10-29T14:05:29.994Z,20.70
2022-10-29T14:07:56.955Z,20.70
2022-10-29T14:13:23.764Z,20.60
2022-10-29T14:16:06.621Z,20.60
2022-10-29T14:18:35.355Z,20.60
2022-10-29T14:21:04.452Z,20.60
2022-10-29T14:23:32.614Z,20.60
2022-10-29T14:26:02.962Z,20.60
2022-10-29T14:28:30.440Z,20.60
2022-10-29T14:31:04.744Z,20.60
2022-10-29T14:33:34.661Z,20.50
2022-10-29T14:36:07.277Z,20.50
2022-10-29T14:38:44.840Z,20.60
2022-10-29T14:41:12.225Z,20.50
2022-10-29T14:43:39.880Z,20.50
2022-10-29T14:46:27.486Z,20.50
2022-10-29T14:49:11.715Z,20.50
2022-10-29T14:51:51.583Z,20.40
2022-10-29T14:54:26.354Z,20.40
2022-10-29T14:56:58.360Z,20.40
2022-10-29T14:59:29.217Z,20.30
2022-10-29T15:02:17.141Z,20.30
2022-10-29T15:04:56.160Z,20.20
2022-10-29T15:07:23.531Z,20.10
2022-10-29T15:10:01.822Z,20.10
2022-10-29T15:12:37.190Z,20.00
2022-10-29T15:15:08.370Z,20.00
2022-10-29T15:17:35.936Z,19.90
2022-10-29T15:20:06.147Z,19.80
2022-10-29T15:22:39.271Z,19.80
2022-10-29T15:25:12.701Z,19.70
2022-10-29T15:27:40.404Z,19.60
2022-10-29T15:30:19.263Z,19.50
2022-10-29T15:32:47.405Z,19.40
2022-10-29T15:35:20.043Z,19.40
2022-10-29T15:37:47.042Z,19.30
2022-10-29T15:40:19.438Z,19.30
2022-10-29T15:42:46.884Z,18.40
2022-10-29T15:45:14.110Z,19.20
2022-10-29T15:47:48.305Z,19.20
2022-10-29T15:50:21.464Z,19.10
2022-10-29T15:52:58.557Z,19.00
2022-10-29T15:55:30.637Z,18.90
2022-10-29T15:58:14.716Z,18.80
2022-10-29T16:00:41.510Z,18.70
2022-10-29T16:03:26.228Z,18.60
2022-10-29T16:06:03.964Z,18.60
2022-10-29T16:08:41.326Z,18.70
2022-10-29T16:11:15.084Z,18.80
2022-10-29T16:13:42.244Z,18.80
2022-10-29T16:16:15.908Z,18.80
2022-10-29T16:18:43.097Z,18.70
2022-10-29T16:21:14.581Z,18.60
2022-10-29T16:23:41.507Z,18.50
2022-10-29T16:26:15.177Z,18.40
2022-10-29T16:28:43.626Z,18.40
2022-10-29T16:31:36.939Z,18.40
2022-10-29T16:34:05.551Z,18.40
2022-10-29T16:38:59.353Z,18.30
2022-10-29T16:41:26.054Z,18.30
2022-10-29T16:43:52.996Z,18.20
2022-10-29T16:46:19.711Z,18.20
2022-10-29T16:48:46.509Z,18.00
2022-10-29T16:51:13.425Z,18.00
2022-10-29T16:53:40.171Z,17.90
2022-10-29T16:56:07.195Z,17.80
2022-10-29T16:58:33.965Z,17.80
2022-10-29T17:01:08.483Z,17.70
2022-10-29T17:03:35.552Z,17.70
2022-10-29T17:06:10.512Z,17.60
2022-10-29T17:08:38.137Z,17.60
2022-10-29T17:11:06.501Z,17.60
2022-10-29T17:13:34.600Z,17.50
2022-10-29T17:16:05.441Z,17.60
2022-10-29T17:18:32.462Z,17.50
2022-10-29T17:21:01.047Z,17.50
2022-10-29T17:23:28.767Z,17.50
2022-10-29T17:25:56.974Z,17.50
2022-10-29T17:28:24.724Z,17.50
2022-10-29T17:30:51.627Z,17.50
2022-10-29T17:33:19.143Z,17.40
2022-10-29T17:35:46.196Z,17.40
2022-10-29T17:38:12.927Z,17.40
2022-10-29T17:40:39.720Z,17.40
2022-10-29T17:43:06.508Z,17.30
2022-10-29T17:45:33.280Z,17.20
2022-10-29T17:48:00.400Z,17.20
2022-10-29T17:50:27.516Z,17.20
2022-10-29T17:52:57.703Z,17.10
2022-10-29T17:55:24.544Z,17.10
2022-10-29T17:57:51.209Z,17.00
2022-10-29T18:00:18.061Z,16.90
2022-10-29T18:02:44.874Z,16.90
2022-10-29T18:05:11.582Z,16.80
2022-10-29T18:07:38.237Z,16.80
2022-10-29T18:10:05.250Z,16.70
2022-10-29T18:12:31.921Z,16.70
2022-10-29T18:14:58.777Z,16.70
2022-10-29T18:17:25.437Z,16.70
2022-10-29T18:19:52.225Z,16.70
2022-10-29T18:22:18.913Z,16.70
2022-10-29T18:24:45.585Z,16.60
2022-10-29T18:27:12.222Z,16.60
2022-10-29T18:29:38.861Z,16.60
2022-10-29T18:32:05.541Z,16.60
2022-10-29T18:34:34.059Z,16.50
2022-10-29T18:37:00.762Z,16.50
2022-10-29T18:39:27.500Z,16.50
2022-10-29T18:41:54.277Z,16.50
2022-10-29T18:44:20.932Z,16.40
2022-10-29T18:46:47.632Z,16.30
2022-10-29T18:49:14.303Z,16.30
2022-10-29T18:51:41.159Z,16.30
2022-10-29T18:54:09.968Z,16.20
2022-10-29T18:56:36.960Z,16.20
2022-10-29T18:59:03.676Z,16.20
2022-10-29T19:01:32.400Z,16.20
2022-10-29T19:04:01.364Z,16.20
2022-10-29T19:06:30.887Z,16.20
2022-10-29T19:08:59.323Z,16.20
2022-10-29T19:11:26.755Z,16.20
2022-10-29T19:13:55.655Z,16.10
2022-10-29T19:16:22.648Z,16.00
2022-10-29T19:18:57.826Z,15.90
2022-10-29T19:21:24.802Z,15.90
2022-10-29T19:23:59.817Z,15.90
2022-10-29T19:26:31.562Z,15.90
2022-10-29T19:29:03.531Z,16.00
2022-10-29T19:31:32.148Z,16.00
2022-10-29T19:34:01.131Z,16.00
2022-10-29T19:36:29.371Z,16.00
2022-10-29T19:38:56.573Z,16.10
2022-10-29T19:41:23.683Z,16.10
2022-10-29T19:43:50.387Z,16.10
2022-10-29T19:46:22.719Z,16.10
2022-10-29T19:48:51.283Z,16.20
2022-10-29T19:51:18.719Z,16.20
2022-10-29T19:53:45.774Z,16.30
2022-10-29T19:56:14.550Z,16.20
2022-10-29T19:58:41.364Z,16.20
2022-10-29T20:01:12.814Z,16.20
2022-10-29T20:03:39.769Z,16.20
2022-10-29T20:06:09.074Z,16.20
2022-10-29T20:08:37.148Z,16.10
2022-10-29T20:11:04.241Z,16.10
2022-10-29T20:13:31.217Z,16.10
2022-10-29T20:15:57.941Z,16.10
2022-10-29T20:18:24.962Z,16.10
2022-10-29T20:20:56.270Z,16.00
2022-10-29T20:23:23.975Z,15.90
2022-10-29T20:25:50.679Z,15.90
2022-10-29T20:28:17.662Z,15.80
2022-10-29T20:30:44.685Z,15.80
2022-10-29T20:33:11.403Z,15.70
2022-10-29T20:35:38.225Z,15.70
2022-10-29T20:38:05.182Z,15.70
2022-10-29T20:40:31.916Z,15.60
2022-10-29T20:42:58.676Z,15.80
2022-10-29T20:45:25.383Z,15.70
2022-10-29T20:47:52.023Z,15.60
2022-10-29T20:50:18.701Z,15.60
2022-10-29T20:52:48.641Z,15.70
2022-10-29T20:55:16.318Z,15.60
2022-10-29T20:57:42.993Z,15.60
2022-10-29T21:00:10.493Z,15.60
2022-10-29T21:02:37.429Z,15.50
2022-10-29T21:05:04.568Z,15.50
2022-10-29T21:07:31.356Z,15.50
2022-10-29T21:09:58.110Z,15.50
2022-10-29T21:12:24.845Z,15.40
2022-10-29T21:14:51.473Z,15.40
2022-10-29T21:17:18.142Z,15.50
2022-10-29T21:19:44.811Z,15.40
2022-10-29T21:22:14.751Z,15.40
2022-10-29T21:24:44.557Z,15.40
2022-10-29T21:27:12.415Z,15.40
2022-10-29T21:29:39.120Z,15.40
2022-10-29T21:32:05.952Z,15.40
2022-10-29T21:34:32.608Z,15.40
2022-10-29T21:36:59.250Z,15.40
2022-10-29T21:39:26.361Z,15.40
2022-10-29T21:41:53.044Z,15.40
2022-10-29T21:44:19.701Z,15.40
2022-10-29T21:46:46.363Z,15.40
2022-10-29T21:49:13.027Z,15.40
2022-10-29T21:51:39.679Z,15.50
2022-10-29T21:54:06.426Z,15.50
2022-10-29T21:56:33.132Z,15.50
2022-10-29T21:58:59.895Z,15.50
2022-10-29T22:01:26.698Z,15.50
2022-10-29T22:03:53.553Z,15.60
2022-10-29T22:06:22.360Z,15.60
2022-10-29T22:08:54.827Z,15.70
2022-10-29T22:11:22.078Z,15.60
2022-10-29T22:13:48.756Z,15.70
2022-10-29T22:16:15.635Z,15.70
2022-10-29T22:18:42.295Z,15.70
2022-10-29T22:21:15.986Z,15.70
2022-10-29T22:23:48.032Z,15.60
2022-10-29T22:26:17.218Z,15.70
2022-10-29T22:28:44.472Z,15.70
2022-10-29T22:31:11.633Z,15.60
2022-10-29T22:33:38.930Z,15.60
2022-10-29T22:36:08.792Z,15.60
2022-10-29T22:38:35.999Z,15.60
2022-10-29T22:41:16.195Z,15.50
2022-10-29T22:43:43.837Z,15.50
2022-10-29T22:46:12.555Z,15.50
2022-10-29T22:48:39.597Z,15.50
2022-10-29T22:51:11.449Z,15.40
2022-10-29T22:53:38.149Z,15.40
2022-10-29T22:56:05.730Z,15.40
2022-10-29T22:58:32.848Z,15.40
2022-10-29T23:01:03.073Z,15.40
2022-10-29T23:03:29.878Z,15.40
2022-10-29T23:06:01.161Z,15.40
2022-10-29T23:08:28.649Z,15.40
2022-10-29T23:10:55.708Z,15.50
2022-10-29T23:13:22.373Z,15.50
2022-10-29T23:15:50.451Z,15.50
2022-10-29T23:18:17.197Z,15.40
2022-10-29T23:20:44.420Z,15.50
2022-10-29T23:23:12.499Z,15.50
2022-10-29T23:25:42.855Z,15.50
2022-10-29T23:28:09.683Z,15.50
2022-10-29T23:30:36.349Z,15.50
2022-10-29T23:33:03.004Z,15.50
2022-10-29T23:35:29.624Z,15.50
2022-10-29T23:37:56.640Z,15.40
2022-10-29T23:40:23.548Z,15.40
2022-10-29T23:42:50.197Z,15.50
2022-10-29T23:45:17.136Z,15.50
2022-10-29T23:47:43.914Z,15.50
2022-10-29T23:50:10.715Z,15.50
2022-10-29T23:52:37.347Z,15.50
2022-10-29T23:55:04.170Z,15.50
2022-10-29T23:57:30.820Z,15.60
2022-10-29T23:59:57.455Z,15.60
